Time;durP1;ratioP1;P1;durP2;ratioP2;P2;SDS_P1;SDS_P2;PMS_P1;PMS_P2;Temp;Humidity;BMP_temperature;BMP_pressure;BME280_temperature;BME280_humidity;BME280_pressure;Samples;Min_cycle;Max_cycle;Signal;HPM_P1;HPM_P2
2022/10/28 06:58:56;;;;;;;;;48.00;38.25;;;;;;;;4223442;32;3344973;-46
2022/10/28 07:01:40;;;;;;;;;55.00;42.75;;;;;;;;5077000;28;51222;-45
2022/10/28 07:04:25;;;;;;;;;52.25;42.50;;;;;;;;5074910;27;51234;-48
2022/10/28 07:07:09;;;;;;;;;55.75;44.50;;;;;;;;5069581;28;51107;-47
2022/10/28 07:09:54;;;;;;;;;56.75;44.00;;;;;;;;5075902;28;51755;-50
2022/10/28 07:12:38;;;;;;;;;52.25;42.00;;;;;;;;5072218;27;51206;-48
2022/10/28 07:15:23;;;;;;;;;53.25;42.50;;;;;;;;5074946;27;51201;-46
2022/10/28 07:18:07;;;;;;;;;52.00;41.25;;;;;;;;5071776;27;51201;-49
2022/10/28 07:20:51;;;;;;;;;49.00;40.75;;;;;;;;5073567;27;51821;-50
2022/10/28 07:23:36;;;;;;;;;50.00;39.75;;;;;;;;5076061;28;51059;-49
2022/10/28 07:26:20;;;;;;;;;56.75;45.25;;;;;;;;5076293;28;51203;-49
2022/10/28 07:29:05;;;;;;;;;60.75;47.00;;;;;;;;5073322;27;51469;-50
2022/10/28 07:31:52;;;;;;;;;54.00;43.00;;;;;;;;5070667;27;51119;-45
2022/10/28 07:34:37;;;;;;;;;57.00;46.00;;;;;;;;5069338;27;51216;-48
2022/10/28 07:37:21;;;;;;;;;56.00;43.00;;;;;;;;5073452;27;51149;-47
2022/10/28 07:40:06;;;;;;;;;52.25;41.75;;;;;;;;5073320;28;51191;-48
2022/10/28 07:42:50;;;;;;;;;54.00;41.50;;;;;;;;5073345;27;51474;-45
2022/10/28 07:45:35;;;;;;;;;55.50;43.75;;;;;;;;5070603;27;51105;-46
2022/10/28 07:48:19;;;;;;;;;51.75;40.50;;;;;;;;5072195;27;51810;-46
2022/10/28 07:51:05;;;;;;;;;53.50;42.00;;;;;;;;5073207;28;51108;-48
2022/10/28 07:53:49;;;;;;;;;52.75;41.75;;;;;;;;5073019;27;51646;-46
2022/10/28 07:56:33;;;;;;;;;55.75;43.75;;;;;;;;5074578;28;51100;-46
2022/10/28 07:59:19;;;;;;;;;51.75;41.75;;;;;;;;5061342;28;51494;-47
2022/10/28 08:02:04;;;;;;;;;48.75;41.25;;;;;;;;5057683;28;51203;-46
2022/10/28 08:04:48;;;;;;;;;47.75;39.50;;;;;;;;5060468;28;51098;-47
2022/10/28 08:07:33;;;;;;;;;59.25;46.50;;;;;;;;5057582;28;51166;-47
2022/10/28 08:10:17;;;;;;;;;51.50;43.25;;;;;;;;5056545;28;51025;-46
2022/10/28 08:13:01;;;;;;;;;51.00;41.00;;;;;;;;5056554;27;51121;-47
2022/10/28 08:15:53;;;;;;;;;52.25;42.25;;;;;;;;5060459;28;51180;-46
2022/10/28 08:18:37;;;;;;;;;44.50;36.50;;;;;;;;5058954;27;51170;-48
2022/10/28 08:21:22;;;;;;;;;45.50;36.25;;;;;;;;5060915;28;51039;-48
2022/10/28 08:24:07;;;;;;;;;40.50;34.00;;;;;;;;5060572;28;51772;-46
2022/10/28 08:26:51;;;;;;;;;38.00;32.50;;;;;;;;5059908;27;51167;-47
2022/10/28 08:29:35;;;;;;;;;46.75;35.75;;;;;;;;5056368;28;51189;-51
2022/10/28 08:32:20;;;;;;;;;42.00;33.75;;;;;;;;5052821;28;51078;-46
2022/10/28 08:35:04;;;;;;;;;39.50;34.00;;;;;;;;5061121;28;51069;-48
2022/10/28 08:37:52;;;;;;;;;45.50;38.50;;;;;;;;5052999;28;51096;-45
2022/10/28 08:40:41;;;;;;;;;53.25;42.25;;;;;;;;5057806;28;51150;-46
2022/10/28 08:43:28;;;;;;;;;44.50;36.75;;;;;;;;5057046;28;51828;-46
2022/10/28 08:46:12;;;;;;;;;46.50;38.25;;;;;;;;5057275;28;51160;-50
2022/10/28 08:48:56;;;;;;;;;38.75;33.00;;;;;;;;5054397;28;51709;-45
2022/10/28 08:51:46;;;;;;;;;33.00;30.00;;;;;;;;5059836;28;51135;-48
2022/10/28 08:54:49;;;;;;;;;34.50;30.25;;;;;;;;5060015;28;51163;-49
2022/10/28 08:57:42;;;;;;;;;39.50;31.50;;;;;;;;5058850;28;51220;-47
2022/10/28 09:00:28;;;;;;;;;43.75;34.00;;;;;;;;5059097;28;51440;-48
2022/10/28 09:03:12;;;;;;;;;32.75;30.25;;;;;;;;5056829;27;51191;-48
2022/10/28 09:06:00;;;;;;;;;31.75;30.50;;;;;;;;5056980;28;51093;-46
2022/10/28 09:08:47;;;;;;;;;31.75;30.75;;;;;;;;5058410;28;51588;-46
2022/10/28 09:11:42;;;;;;;;;35.75;29.00;;;;;;;;5051760;28;51441;-49
2022/10/28 09:14:51;;;;;;;;;32.25;29.25;;;;;;;;5057734;28;51606;-48
2022/10/28 09:17:38;;;;;;;;;30.75;28.00;;;;;;;;5046079;27;52772;-48
2022/10/28 09:20:28;;;;;;;;;51.50;39.50;;;;;;;;5055415;28;51451;-49
2022/10/28 09:23:28;;;;;;;;;50.00;40.00;;;;;;;;5053624;28;51268;-48
2022/10/28 09:26:23;;;;;;;;;49.75;39.25;;;;;;;;5058049;28;51136;-51
2022/10/28 09:29:20;;;;;;;;;54.00;42.75;;;;;;;;5051526;28;51232;-47
2022/10/28 09:32:14;;;;;;;;;50.00;40.00;;;;;;;;5054036;28;51121;-50
2022/10/28 09:35:05;;;;;;;;;50.75;42.50;;;;;;;;5057814;28;51564;-48
2022/10/28 09:37:52;;;;;;;;;51.00;40.50;;;;;;;;5059248;28;51229;-47
2022/10/28 09:40:39;;;;;;;;;51.75;41.50;;;;;;;;5056628;28;52048;-49
2022/10/28 09:43:36;;;;;;;;;46.25;38.00;;;;;;;;5054212;28;51047;-47
2022/10/28 09:46:22;;;;;;;;;49.25;39.75;;;;;;;;5059363;28;51254;-47
2022/10/28 09:49:16;;;;;;;;;46.00;38.00;;;;;;;;5057549;28;51203;-50
2022/10/28 09:52:08;;;;;;;;;49.75;41.00;;;;;;;;5059313;28;51649;-47
2022/10/28 09:54:53;;;;;;;;;52.25;42.50;;;;;;;;5057572;28;51242;-49
2022/10/28 09:57:37;;;;;;;;;51.75;43.00;;;;;;;;5049920;28;51279;-45
2022/10/28 10:00:22;;;;;;;;;51.00;42.25;;;;;;;;5056509;28;51562;-50
2022/10/28 10:03:06;;;;;;;;;49.50;41.00;;;;;;;;5052636;28;51130;-47
2022/10/28 10:05:53;;;;;;;;;50.50;42.00;;;;;;;;5051290;28;51132;-48
2022/10/28 10:14:51;;;;;;;;;47.00;35.00;;;;;;;;5028141;28;51419;-46
2022/10/28 10:17:40;;;;;;;;;45.25;37.00;;;;;;;;5020584;28;51092;-48
2022/10/28 10:20:25;;;;;;;;;46.50;37.00;;;;;;;;5018997;28;51096;-50
2022/10/28 10:23:33;;;;;;;;;42.00;36.00;;;;;;;;5019492;28;51064;-48
2022/10/28 10:26:17;;;;;;;;;43.00;35.00;;;;;;;;5036453;28;51560;-46
2022/10/28 10:29:01;;;;;;;;;49.00;36.25;;;;;;;;5038554;28;51108;-50
2022/10/28 10:31:46;;;;;;;;;45.50;36.75;;;;;;;;5037940;28;51527;-45
2022/10/28 10:34:30;;;;;;;;;43.00;34.00;;;;;;;;5029364;28;51203;-51
2022/10/28 10:37:20;;;;;;;;;39.50;33.25;;;;;;;;5030674;28;51115;-50
2022/10/28 10:40:06;;;;;;;;;15.25;12.75;;;;;;;;5037577;28;51535;-51
2022/10/28 10:42:50;;;;;;;;;14.50;11.50;;;;;;;;5039832;28;50997;-53
2022/10/28 10:45:34;;;;;;;;;27.50;24.25;;;;;;;;5038302;28;51072;-45
2022/10/28 10:48:19;;;;;;;;;27.25;23.00;;;;;;;;5037349;28;51159;-48
2022/10/28 10:51:05;;;;;;;;;26.00;25.50;;;;;;;;5039032;28;51283;-49
2022/10/28 10:53:51;;;;;;;;;31.50;25.25;;;;;;;;5026355;28;51071;-48
2022/10/28 10:56:36;;;;;;;;;20.00;18.50;;;;;;;;5023711;28;51355;-49
2022/10/28 10:59:23;;;;;;;;;20.50;20.00;;;;;;;;5027076;28;51061;-50
2022/10/28 11:02:34;;;;;;;;;23.25;21.50;;;;;;;;5035455;28;51134;-48
2022/10/28 11:05:22;;;;;;;;;20.50;20.25;;;;;;;;5033463;28;51576;-47
2022/10/28 11:08:15;;;;;;;;;23.00;18.50;;;;;;;;5038599;28;51509;-50
2022/10/28 11:11:04;;;;;;;;;18.25;17.50;;;;;;;;5037822;28;51055;-53
2022/10/28 11:14:01;;;;;;;;;20.00;16.00;;;;;;;;5029847;28;51225;-47
2022/10/28 11:16:49;;;;;;;;;24.50;20.50;;;;;;;;5018526;28;51077;-49
2022/10/28 11:19:34;;;;;;;;;17.25;16.50;;;;;;;;5020991;28;51212;-50
2022/10/28 11:22:39;;;;;;;;;17.00;15.75;;;;;;;;5025831;28;51461;-46
2022/10/28 11:25:26;;;;;;;;;17.75;16.50;;;;;;;;5025176;28;51138;-47
2022/10/28 11:28:27;;;;;;;;;11.75;11.50;;;;;;;;5025825;28;51412;-47
2022/10/28 11:31:29;;;;;;;;;13.25;11.25;;;;;;;;5038001;28;51139;-50
2022/10/28 11:34:27;;;;;;;;;12.75;8.50;;;;;;;;5020872;28;51337;-47
2022/10/28 11:37:20;;;;;;;;;11.50;7.00;;;;;;;;5025411;28;51433;-49
2022/10/28 11:40:14;;;;;;;;;9.00;7.75;;;;;;;;5034762;28;51147;-47
2022/10/28 11:43:11;;;;;;;;;9.75;8.00;;;;;;;;5025051;28;51502;-46
2022/10/28 11:46:15;;;;;;;;;9.75;7.75;;;;;;;;5031626;28;51230;-49
2022/10/28 11:49:18;;;;;;;;;8.25;6.75;;;;;;;;5029225;28;51321;-49
2022/10/28 11:52:02;;;;;;;;;3.00;3.00;;;;;;;;5023064;28;51173;-48
2022/10/28 11:54:52;;;;;;;;;13.50;7.25;;;;;;;;5026924;28;51144;-49
2022/10/28 11:57:55;;;;;;;;;9.25;9.25;;;;;;;;5027354;28;51250;-50
2022/10/28 12:00:40;;;;;;;;;6.25;6.25;;;;;;;;5041736;28;51123;-49
2022/10/28 12:03:36;;;;;;;;;12.00;7.75;;;;;;;;5036411;28;51936;-49
2022/10/28 12:06:36;;;;;;;;;10.75;8.75;;;;;;;;5041240;28;51198;-46
2022/10/28 12:09:30;;;;;;;;;9.25;8.25;;;;;;;;5026017;28;51528;-50
2022/10/28 12:12:15;;;;;;;;;9.00;7.25;;;;;;;;5025918;28;51109;-48
2022/10/28 12:15:19;;;;;;;;;9.75;7.00;;;;;;;;5025984;28;51131;-53
2022/10/28 12:18:14;;;;;;;;;9.75;8.25;;;;;;;;5027804;28;51261;-53
2022/10/28 12:21:03;;;;;;;;;8.25;7.50;;;;;;;;5027376;28;51096;-47
2022/10/28 12:23:47;;;;;;;;;11.25;7.75;;;;;;;;5023942;28;51116;-49
2022/10/28 12:26:34;;;;;;;;;7.00;7.00;;;;;;;;5037534;28;51065;-49
2022/10/28 12:29:32;;;;;;;;;6.50;6.50;;;;;;;;5022465;28;51070;-49
2022/10/28 12:32:31;;;;;;;;;11.00;8.25;;;;;;;;5031169;28;51105;-49
2022/10/28 12:35:18;;;;;;;;;9.50;7.75;;;;;;;;5029741;28;51050;-49
2022/10/28 12:38:14;;;;;;;;;8.75;7.00;;;;;;;;5040896;28;51161;-45
2022/10/28 12:41:03;;;;;;;;;8.25;7.50;;;;;;;;5024464;28;51340;-46
2022/10/28 12:44:07;;;;;;;;;6.75;6.50;;;;;;;;5034484;28;51118;-47
2022/10/28 12:47:15;;;;;;;;;9.50;7.25;;;;;;;;5037371;28;51140;-48
2022/10/28 12:50:08;;;;;;;;;7.00;7.00;;;;;;;;5003052;28;51331;-49
2022/10/28 12:53:05;;;;;;;;;6.25;6.25;;;;;;;;5026018;28;51202;-47
2022/10/28 12:55:52;;;;;;;;;9.25;6.00;;;;;;;;5035377;28;51040;-50
2022/10/28 12:58:45;;;;;;;;;7.50;5.75;;;;;;;;5038650;28;51009;-46
2022/10/28 13:01:31;;;;;;;;;8.50;7.75;;;;;;;;5031010;28;50987;-47
2022/10/28 13:04:15;;;;;;;;;9.25;7.25;;;;;;;;5039718;28;51255;-51
2022/10/28 13:07:19;;;;;;;;;12.00;7.75;;;;;;;;5027004;28;51459;-48
2022/10/28 13:10:06;;;;;;;;;10.50;6.75;;;;;;;;5024469;28;51127;-45
2022/10/28 13:13:08;;;;;;;;;9.75;8.25;;;;;;;;5020236;28;51073;-51
2022/10/28 13:16:05;;;;;;;;;12.25;9.00;;;;;;;;5036616;28;51066;-46
2022/10/28 13:19:09;;;;;;;;;14.75;9.75;;;;;;;;5039462;28;51516;-45
2022/10/28 13:22:02;;;;;;;;;8.25;6.50;;;;;;;;4989658;28;51214;-51
2022/10/28 13:25:01;;;;;;;;;9.50;7.25;;;;;;;;5028647;28;51001;-49
2022/10/28 13:27:45;;;;;;;;;10.25;7.00;;;;;;;;5037196;28;51534;-46
2022/10/28 13:30:31;;;;;;;;;9.75;8.50;;;;;;;;5020555;28;51117;-53
2022/10/28 13:33:17;;;;;;;;;7.75;7.00;;;;;;;;5021656;28;51026;-51
2022/10/28 13:36:27;;;;;;;;;8.00;6.50;;;;;;;;5022030;28;51199;-48
2022/10/28 13:39:24;;;;;;;;;10.50;7.75;;;;;;;;5039444;28;51067;-47
2022/10/28 13:42:11;;;;;;;;;12.25;7.25;;;;;;;;5036043;28;51064;-50
2022/10/28 13:44:57;;;;;;;;;9.50;8.50;;;;;;;;5024903;28;51371;-49
2022/10/28 13:47:42;;;;;;;;;13.00;8.25;;;;;;;;5021339;28;51320;-48
2022/10/28 13:50:33;;;;;;;;;11.25;7.75;;;;;;;;5034523;28;51403;-51
2022/10/28 13:53:23;;;;;;;;;5.75;5.25;;;;;;;;5019265;28;51525;-46
2022/10/28 13:56:10;;;;;;;;;4.50;4.50;;;;;;;;5035511;28;51184;-46
2022/10/28 13:58:59;;;;;;;;;12.00;8.25;;;;;;;;5028435;28;51208;-47
2022/10/28 14:01:46;;;;;;;;;8.25;7.25;;;;;;;;5018925;28;51140;-48
2022/10/28 14:04:34;;;;;;;;;7.75;6.50;;;;;;;;5024999;28;51099;-48
2022/10/28 14:07:21;;;;;;;;;7.50;5.50;;;;;;;;5033911;28;51184;-48
2022/10/28 14:10:14;;;;;;;;;8.75;8.50;;;;;;;;5019446;28;51313;-48
2022/10/28 14:13:02;;;;;;;;;9.00;6.75;;;;;;;;5028422;28;51295;-47
2022/10/28 14:15:47;;;;;;;;;12.50;7.00;;;;;;;;5035059;28;51554;-48
2022/10/28 14:18:32;;;;;;;;;9.50;5.00;;;;;;;;5038002;28;51124;-46
2022/10/28 14:21:16;;;;;;;;;6.00;6.00;;;;;;;;5039509;28;51114;-50
2022/10/28 14:24:03;;;;;;;;;6.75;4.25;;;;;;;;5036531;28;51415;-53
2022/10/28 14:27:20;;;;;;;;;9.50;6.25;;;;;;;;5032229;28;51160;-53
2022/10/28 14:30:17;;;;;;;;;8.25;6.50;;;;;;;;4997019;28;52425;-49
2022/10/28 14:33:10;;;;;;;;;6.75;6.75;;;;;;;;5029412;28;51007;-47
2022/10/28 14:35:57;;;;;;;;;8.00;6.50;;;;;;;;5023156;28;51207;-48
2022/10/28 14:38:50;;;;;;;;;11.75;8.00;;;;;;;;5027472;28;51399;-52
2022/10/28 14:41:36;;;;;;;;;8.75;5.75;;;;;;;;5020261;28;51089;-52
2022/10/28 14:44:26;;;;;;;;;4.50;4.50;;;;;;;;5019309;28;51509;-50
2022/10/28 14:47:29;;;;;;;;;7.25;5.25;;;;;;;;5027938;28;51178;-45
2022/10/28 14:50:13;;;;;;;;;12.25;6.75;;;;;;;;5018798;28;51317;-48
2022/10/28 14:52:58;;;;;;;;;7.75;5.00;;;;;;;;5019414;28;51442;-47
2022/10/28 14:55:49;;;;;;;;;8.25;7.25;;;;;;;;5025215;28;51099;-49
2022/10/28 14:58:37;;;;;;;;;6.75;5.50;;;;;;;;5029154;28;51173;-47
2022/10/28 15:01:23;;;;;;;;;13.00;7.75;;;;;;;;5037906;28;51205;-49
2022/10/28 15:04:11;;;;;;;;;6.50;5.00;;;;;;;;5038481;28;51103;-48
2022/10/28 15:06:56;;;;;;;;;8.75;5.50;;;;;;;;5038984;28;51057;-45
2022/10/28 15:09:42;;;;;;;;;7.50;5.50;;;;;;;;5024375;28;51603;-49
2022/10/28 15:12:28;;;;;;;;;6.75;5.75;;;;;;;;5033491;28;51101;-51
2022/10/28 15:15:16;;;;;;;;;7.00;5.25;;;;;;;;5031158;28;51360;-50
2022/10/28 15:18:01;;;;;;;;;3.75;3.50;;;;;;;;5022919;28;51081;-50
2022/10/28 15:20:45;;;;;;;;;7.50;3.75;;;;;;;;5022380;28;51377;-48
2022/10/28 15:23:29;;;;;;;;;8.25;4.50;;;;;;;;5035862;28;51626;-48
2022/10/28 15:26:15;;;;;;;;;9.75;5.25;;;;;;;;5033014;28;51443;-51
2022/10/28 15:28:59;;;;;;;;;6.25;5.25;;;;;;;;5024718;28;51046;-46
2022/10/28 15:32:02;;;;;;;;;6.25;5.25;;;;;;;;5041837;28;51204;-47
2022/10/28 15:34:47;;;;;;;;;7.50;7.00;;;;;;;;5030936;28;51027;-47
2022/10/28 15:37:35;;;;;;;;;6.00;5.00;;;;;;;;5027115;28;51143;-49
2022/10/28 15:40:32;;;;;;;;;5.00;3.75;;;;;;;;5038074;28;51835;-52
2022/10/28 15:43:25;;;;;;;;;10.25;6.50;;;;;;;;5042491;28;51039;-45
2022/10/28 15:46:10;;;;;;;;;8.50;8.50;;;;;;;;5041128;28;51462;-49
2022/10/28 15:48:56;;;;;;;;;9.00;7.25;;;;;;;;5031341;28;51051;-45
2022/10/28 15:51:40;;;;;;;;;10.00;5.25;;;;;;;;5026147;28;51333;-50
2022/10/28 15:54:27;;;;;;;;;10.75;7.00;;;;;;;;5032150;28;51096;-52
2022/10/28 15:57:21;;;;;;;;;12.75;6.50;;;;;;;;5030877;28;51200;-51
2022/10/28 16:00:24;;;;;;;;;3.50;3.00;;;;;;;;5032402;28;51376;-45
2022/10/28 16:03:23;;;;;;;;;8.25;5.25;;;;;;;;5023722;28;51082;-47
2022/10/28 16:06:27;;;;;;;;;4.50;4.50;;;;;;;;5035196;28;51331;-44
2022/10/28 16:09:38;;;;;;;;;6.00;3.50;;;;;;;;5036420;28;51158;-47
2022/10/28 16:12:25;;;;;;;;;6.25;1.75;;;;;;;;5028858;28;51591;-46
2022/10/28 16:15:13;;;;;;;;;4.00;1.00;;;;;;;;5030058;28;51102;-50
2022/10/28 16:17:58;;;;;;;;;4.50;4.50;;;;;;;;5031785;28;51038;-50
2022/10/28 16:20:43;;;;;;;;;5.25;3.75;;;;;;;;5028866;28;51151;-50
2022/10/28 16:23:32;;;;;;;;;7.00;4.75;;;;;;;;5021740;28;51078;-49
2022/10/28 16:26:16;;;;;;;;;4.50;3.00;;;;;;;;5029833;28;51136;-52
2022/10/28 16:29:01;;;;;;;;;6.50;3.25;;;;;;;;5031647;28;51640;-46
2022/10/28 16:31:48;;;;;;;;;5.25;3.00;;;;;;;;5026963;28;51047;-47
2022/10/28 16:34:32;;;;;;;;;8.50;4.25;;;;;;;;5034312;28;51056;-49
2022/10/28 16:37:28;;;;;;;;;2.75;2.75;;;;;;;;5030522;28;51583;-49
2022/10/28 16:40:12;;;;;;;;;8.00;4.75;;;;;;;;5034485;28;51180;-46
2022/10/28 16:42:56;;;;;;;;;7.00;5.00;;;;;;;;5027673;28;51085;-51
2022/10/28 16:45:41;;;;;;;;;5.25;3.75;;;;;;;;5021052;28;51121;-49
2022/10/28 16:48:27;;;;;;;;;4.50;4.25;;;;;;;;5021271;28;51129;-46
2022/10/28 16:51:13;;;;;;;;;4.00;3.00;;;;;;;;5031251;28;51444;-46
2022/10/28 16:53:59;;;;;;;;;6.25;3.50;;;;;;;;5020755;28;51109;-51
2022/10/28 16:56:44;;;;;;;;;7.00;4.50;;;;;;;;5022404;28;51196;-46
2022/10/28 16:59:28;;;;;;;;;3.50;3.00;;;;;;;;5040574;28;51071;-51
2022/10/28 17:02:19;;;;;;;;;3.25;3.25;;;;;;;;5037517;28;51060;-49
2022/10/28 17:05:03;;;;;;;;;5.75;5.75;;;;;;;;5031433;28;51112;-51
2022/10/28 17:07:48;;;;;;;;;12.25;8.75;;;;;;;;5039775;28;51485;-51
2022/10/28 17:10:32;;;;;;;;;8.25;7.00;;;;;;;;5039848;28;51153;-49
2022/10/28 17:13:16;;;;;;;;;9.50;7.00;;;;;;;;5036765;28;51213;-48
2022/10/28 17:16:01;;;;;;;;;7.25;6.25;;;;;;;;5034437;28;51459;-47
2022/10/28 17:18:47;;;;;;;;;4.25;4.00;;;;;;;;5025249;28;51098;-49
2022/10/28 17:21:32;;;;;;;;;7.25;5.00;;;;;;;;5026756;28;51310;-45
2022/10/28 17:24:16;;;;;;;;;9.75;6.00;;;;;;;;5025507;28;51225;-45
2022/10/28 17:27:01;;;;;;;;;9.75;9.25;;;;;;;;5027901;28;51128;-48
2022/10/28 17:29:45;;;;;;;;;5.75;5.75;;;;;;;;5030194;28;51112;-48
2022/10/28 17:32:29;;;;;;;;;10.00;10.00;;;;;;;;5026277;28;51552;-48
2022/10/28 17:35:14;;;;;;;;;16.75;11.75;;;;;;;;5027597;28;51101;-49
2022/10/28 17:37:58;;;;;;;;;6.00;4.75;;;;;;;;5022509;28;51764;-49
2022/10/28 17:40:43;;;;;;;;;6.50;5.25;;;;;;;;5028978;28;51335;-49
2022/10/28 17:43:27;;;;;;;;;10.00;6.00;;;;;;;;5024913;28;52216;-48
2022/10/28 17:46:12;;;;;;;;;6.00;5.00;;;;;;;;5018476;28;51163;-51
2022/10/28 17:48:56;;;;;;;;;7.75;6.25;;;;;;;;5014222;28;51179;-47
2022/10/28 17:51:41;;;;;;;;;11.25;8.00;;;;;;;;5039658;28;51107;-51
2022/10/28 17:54:25;;;;;;;;;7.75;5.00;;;;;;;;5022379;28;51206;-52
2022/10/28 17:57:09;;;;;;;;;7.25;5.50;;;;;;;;5028036;28;51160;-47
2022/10/28 17:59:54;;;;;;;;;7.50;7.50;;;;;;;;5032261;28;51211;-52
2022/10/28 18:02:39;;;;;;;;;12.25;7.25;;;;;;;;5024754;28;51192;-49
2022/10/28 18:05:23;;;;;;;;;7.25;4.75;;;;;;;;5030461;28;51124;-47
2022/10/28 18:08:07;;;;;;;;;9.75;5.50;;;;;;;;5025818;28;51104;-49
2022/10/28 18:10:53;;;;;;;;;8.25;5.00;;;;;;;;5029791;28;51266;-52
2022/10/28 18:13:39;;;;;;;;;4.75;4.25;;;;;;;;5022771;28;51044;-48
2022/10/28 18:16:26;;;;;;;;;7.75;5.75;;;;;;;;5025543;28;51487;-49
2022/10/28 18:19:12;;;;;;;;;2.00;2.00;;;;;;;;5023459;28;51405;-46
2022/10/28 18:21:56;;;;;;;;;4.75;4.75;;;;;;;;5024114;28;51029;-49
2022/10/28 18:24:41;;;;;;;;;6.75;6.00;;;;;;;;5025370;28;51182;-52
2022/10/28 18:27:27;;;;;;;;;6.00;3.50;;;;;;;;5026292;28;52047;-51
2022/10/28 18:30:12;;;;;;;;;6.00;4.75;;;;;;;;5025269;28;51279;-50
2022/10/28 18:32:56;;;;;;;;;7.75;4.00;;;;;;;;5010577;28;51136;-48
2022/10/28 18:35:40;;;;;;;;;10.25;5.00;;;;;;;;5026499;28;51279;-49
2022/10/28 18:38:24;;;;;;;;;6.00;4.00;;;;;;;;5028159;28;51243;-52
2022/10/28 18:41:13;;;;;;;;;4.75;4.50;;;;;;;;5023259;28;51409;-49
2022/10/28 18:43:58;;;;;;;;;9.25;6.50;;;;;;;;5032876;28;51066;-46
2022/10/28 18:46:44;;;;;;;;;8.25;6.75;;;;;;;;5022609;28;51182;-51
2022/10/28 18:49:29;;;;;;;;;7.75;7.50;;;;;;;;5032483;28;51109;-48
2022/10/28 18:52:13;;;;;;;;;12.25;8.25;;;;;;;;5030330;28;51276;-47
2022/10/28 18:54:57;;;;;;;;;8.25;8.00;;;;;;;;5026247;28;51345;-47
2022/10/28 18:57:41;;;;;;;;;10.75;6.75;;;;;;;;5022507;28;51502;-49
2022/10/28 19:00:26;;;;;;;;;6.00;6.00;;;;;;;;5031148;28;51088;-49
2022/10/28 19:03:18;;;;;;;;;9.75;7.50;;;;;;;;5035555;28;51092;-46
2022/10/28 19:06:07;;;;;;;;;7.25;5.00;;;;;;;;5032962;28;51500;-51
2022/10/28 19:08:52;;;;;;;;;10.25;5.25;;;;;;;;5035884;28;51036;-47
2022/10/28 19:11:37;;;;;;;;;6.50;5.50;;;;;;;;5019353;28;51605;-51
2022/10/28 19:14:21;;;;;;;;;7.00;6.75;;;;;;;;5029605;28;51310;-45
2022/10/28 19:17:07;;;;;;;;;10.50;8.00;;;;;;;;5024806;28;51028;-47
2022/10/28 19:19:52;;;;;;;;;4.50;4.50;;;;;;;;5025793;28;51339;-44
2022/10/28 19:22:36;;;;;;;;;7.00;5.75;;;;;;;;5029356;28;51437;-46
2022/10/28 19:25:20;;;;;;;;;5.25;5.00;;;;;;;;5031115;28;51157;-46
2022/10/28 19:28:05;;;;;;;;;12.25;6.00;;;;;;;;5027585;28;51376;-45
2022/10/28 19:30:49;;;;;;;;;5.25;5.00;;;;;;;;5023908;28;51160;-49
2022/10/28 19:33:34;;;;;;;;;8.00;5.75;;;;;;;;5030584;28;51075;-49
2022/10/28 19:36:20;;;;;;;;;10.00;7.25;;;;;;;;5023260;28;51422;-47
2022/10/28 19:39:05;;;;;;;;;0.00;0.00;;;;;;;;5026883;28;51156;-45
2022/10/28 19:41:49;;;;;;;;;9.50;6.00;;;;;;;;5023674;28;51175;-51
2022/10/28 19:44:33;;;;;;;;;8.75;5.75;;;;;;;;5025488;28;51574;-49
2022/10/28 19:47:18;;;;;;;;;8.75;6.00;;;;;;;;5026179;28;51436;-50
2022/10/28 19:50:02;;;;;;;;;9.75;7.75;;;;;;;;5029266;28;51147;-49
2022/10/28 19:52:46;;;;;;;;;8.00;5.50;;;;;;;;5030699;28;51347;-44
2022/10/28 19:55:31;;;;;;;;;7.75;5.00;;;;;;;;5016718;28;51033;-48
2022/10/28 19:58:15;;;;;;;;;4.50;4.00;;;;;;;;5032459;28;51208;-46
2022/10/28 20:01:04;;;;;;;;;7.00;5.00;;;;;;;;5027058;28;51842;-46
2022/10/28 20:03:49;;;;;;;;;5.50;5.50;;;;;;;;5029455;28;50997;-50
2022/10/28 20:06:34;;;;;;;;;8.00;4.25;;;;;;;;5028776;28;51064;-48
2022/10/28 20:09:18;;;;;;;;;7.50;5.00;;;;;;;;5023254;28;51276;-63
2022/10/28 20:12:03;;;;;;;;;9.25;7.25;;;;;;;;5032102;28;51431;-63
2022/10/28 20:14:47;;;;;;;;;6.25;4.25;;;;;;;;5032993;28;51103;-63
2022/10/28 20:17:32;;;;;;;;;6.75;6.75;;;;;;;;5027020;28;51085;-63
2022/10/28 20:20:16;;;;;;;;;6.00;5.00;;;;;;;;5020125;28;51173;-63
2022/10/28 20:23:00;;;;;;;;;11.00;5.75;;;;;;;;5039855;28;51044;-62
2022/10/28 20:25:51;;;;;;;;;12.50;7.25;;;;;;;;5021479;28;51122;-62
2022/10/28 20:28:36;;;;;;;;;5.00;5.00;;;;;;;;5022715;28;51132;-61
2022/10/28 20:31:22;;;;;;;;;10.00;5.00;;;;;;;;5023921;28;51236;-62
2022/10/28 20:34:06;;;;;;;;;9.75;5.00;;;;;;;;5028032;28;51462;-62
2022/10/28 20:36:50;;;;;;;;;4.50;4.50;;;;;;;;5040245;28;51469;-62
2022/10/28 20:39:35;;;;;;;;;7.75;6.00;;;;;;;;5029751;28;51166;-62
2022/10/28 20:42:19;;;;;;;;;8.25;5.25;;;;;;;;5034334;28;51079;-62
2022/10/28 20:45:04;;;;;;;;;9.00;7.75;;;;;;;;5026940;28;51144;-62
2022/10/28 20:47:48;;;;;;;;;6.50;6.50;;;;;;;;5029205;28;51137;-62
2022/10/28 20:50:32;;;;;;;;;5.75;4.50;;;;;;;;5025208;28;51330;-63
2022/10/28 20:53:17;;;;;;;;;7.00;5.50;;;;;;;;5036999;28;51186;-62
2022/10/28 20:56:02;;;;;;;;;7.25;4.75;;;;;;;;5025201;28;51338;-62
2022/10/28 20:58:47;;;;;;;;;7.50;4.50;;;;;;;;5027553;28;51385;-62
2022/10/28 21:01:36;;;;;;;;;7.50;5.75;;;;;;;;5032545;28;51377;-63
2022/10/28 21:04:20;;;;;;;;;12.75;7.25;;;;;;;;5021042;28;51214;-63
2022/10/28 21:07:04;;;;;;;;;5.25;4.00;;;;;;;;5039749;28;51235;-62
2022/10/28 21:09:49;;;;;;;;;6.50;5.75;;;;;;;;5036757;28;51328;-63
2022/10/28 21:12:33;;;;;;;;;6.50;5.00;;;;;;;;5038388;28;51203;-63
2022/10/28 21:15:18;;;;;;;;;6.25;4.50;;;;;;;;5023892;28;51302;-63
2022/10/28 21:18:03;;;;;;;;;5.75;4.75;;;;;;;;5022182;28;51094;-63
2022/10/28 21:20:47;;;;;;;;;5.25;4.25;;;;;;;;5029297;28;51962;-63
2022/10/28 21:23:31;;;;;;;;;12.75;6.50;;;;;;;;5036951;28;51075;-62
2022/10/28 21:26:16;;;;;;;;;7.75;6.00;;;;;;;;5032440;28;51178;-62
2022/10/28 21:29:00;;;;;;;;;6.25;4.00;;;;;;;;5036599;28;51071;-61
2022/10/28 21:31:44;;;;;;;;;10.50;5.50;;;;;;;;5013535;28;51185;-61
2022/10/28 21:34:29;;;;;;;;;7.00;5.25;;;;;;;;5030506;28;51195;-62
2022/10/28 21:37:13;;;;;;;;;4.25;4.25;;;;;;;;5027519;28;51180;-63
2022/10/28 21:39:58;;;;;;;;;5.50;4.00;;;;;;;;5025505;28;51367;-61
2022/10/28 21:42:46;;;;;;;;;8.00;6.50;;;;;;;;5020744;28;51145;-62
2022/10/28 21:45:31;;;;;;;;;6.50;6.00;;;;;;;;5022751;28;51395;-63
2022/10/28 21:48:15;;;;;;;;;6.75;6.00;;;;;;;;5025699;28;51437;-62
2022/10/28 21:51:01;;;;;;;;;8.00;7.00;;;;;;;;5021293;28;51167;-62
2022/10/28 21:53:44;;;;;;;;;10.50;6.00;;;;;;;;5024359;28;51088;-62
2022/10/28 21:56:29;;;;;;;;;5.00;5.00;;;;;;;;5031969;28;51114;-62
2022/10/28 21:59:13;;;;;;;;;5.75;5.00;;;;;;;;5027709;28;51230;-63
2022/10/28 22:01:58;;;;;;;;;7.50;6.25;;;;;;;;5024868;28;51108;-62
2022/10/28 22:04:42;;;;;;;;;6.25;4.50;;;;;;;;5028155;28;51112;-63
2022/10/28 22:07:27;;;;;;;;;9.75;6.25;;;;;;;;5022421;28;51214;-63
2022/10/28 22:10:11;;;;;;;;;10.50;7.75;;;;;;;;5028252;28;50986;-62
2022/10/28 22:12:56;;;;;;;;;7.75;5.00;;;;;;;;5029115;28;51123;-62
2022/10/28 22:15:40;;;;;;;;;6.75;5.25;;;;;;;;5013003;28;51382;-62
2022/10/28 22:18:25;;;;;;;;;5.75;5.25;;;;;;;;5026219;28;52258;-63
2022/10/28 22:21:11;;;;;;;;;7.00;6.00;;;;;;;;5027996;28;51824;-62
2022/10/28 22:23:55;;;;;;;;;11.25;6.50;;;;;;;;5024659;28;51156;-63
2022/10/28 22:26:40;;;;;;;;;7.75;5.25;;;;;;;;5029684;28;51319;-63
2022/10/28 22:29:24;;;;;;;;;7.50;6.50;;;;;;;;5023019;28;51083;-63
2022/10/28 22:32:08;;;;;;;;;9.25;5.00;;;;;;;;5032280;28;51196;-62
2022/10/28 22:34:53;;;;;;;;;7.00;4.00;;;;;;;;5024465;28;51145;-62
2022/10/28 22:37:37;;;;;;;;;7.75;5.00;;;;;;;;5029311;28;51234;-63
2022/10/28 22:40:22;;;;;;;;;6.00;4.00;;;;;;;;5026957;28;51598;-62
2022/10/28 22:43:06;;;;;;;;;7.75;6.50;;;;;;;;5033955;28;51039;-63
2022/10/28 22:45:54;;;;;;;;;7.25;5.75;;;;;;;;5033813;28;51092;-63
2022/10/28 22:48:38;;;;;;;;;7.00;5.50;;;;;;;;5035249;28;51184;-63
2022/10/28 22:51:23;;;;;;;;;6.50;6.50;;;;;;;;5019324;28;51125;-62
2022/10/28 22:54:07;;;;;;;;;5.50;5.00;;;;;;;;5027095;28;51128;-62
2022/10/28 22:56:52;;;;;;;;;5.25;5.25;;;;;;;;5026336;28;51386;-63
2022/10/28 22:59:36;;;;;;;;;10.00;5.75;;;;;;;;5030039;28;51190;-63
2022/10/28 23:02:20;;;;;;;;;6.75;6.75;;;;;;;;5032221;28;51206;-63
2022/10/28 23:05:05;;;;;;;;;9.00;6.00;;;;;;;;5024579;28;51363;-62
2022/10/28 23:07:49;;;;;;;;;7.50;7.50;;;;;;;;5026464;28;51122;-62
2022/10/28 23:10:34;;;;;;;;;6.00;5.25;;;;;;;;5039135;28;51067;-62
2022/10/28 23:13:18;;;;;;;;;7.75;7.25;;;;;;;;5036846;28;51112;-62
2022/10/28 23:16:07;;;;;;;;;9.00;7.00;;;;;;;;5027359;28;51239;-63
2022/10/28 23:18:54;;;;;;;;;8.00;5.00;;;;;;;;5038984;28;51067;-63
2022/10/28 23:21:38;;;;;;;;;5.75;5.25;;;;;;;;5037372;28;51214;-62
2022/10/28 23:24:23;;;;;;;;;10.00;6.75;;;;;;;;5022978;28;51134;-63
2022/10/28 23:27:07;;;;;;;;;6.50;6.00;;;;;;;;5028908;28;51577;-63
2022/10/28 23:29:52;;;;;;;;;7.75;6.75;;;;;;;;5037134;28;51383;-63
2022/10/28 23:32:36;;;;;;;;;6.00;5.00;;;;;;;;5025090;28;51163;-62
2022/10/28 23:35:20;;;;;;;;;7.25;5.25;;;;;;;;5030779;28;51210;-62
2022/10/28 23:38:05;;;;;;;;;10.25;6.25;;;;;;;;5028416;28;51074;-63